createdAt,value
2022-10-13T00:00:34.381Z,11.30
2022-10-13T00:03:22.708Z,11.40
2022-10-13T00:06:11.215Z,11.30
2022-10-13T00:08:59.593Z,11.40
2022-10-13T00:11:46.133Z,11.40
2022-10-13T00:14:32.991Z,11.50
2022-10-13T00:17:19.881Z,11.40
2022-10-13T00:20:08.819Z,11.40
2022-10-13T00:22:55.290Z,11.40
2022-10-13T00:25:43.332Z,11.40
2022-10-13T00:28:30.247Z,11.50
2022-10-13T00:31:18.945Z,11.50
2022-10-13T00:34:05.678Z,11.50
2022-10-13T00:36:53.586Z,11.50
2022-10-13T00:39:40.443Z,11.50
2022-10-13T00:42:27.258Z,11.50
2022-10-13T00:45:23.531Z,11.50
2022-10-13T00:48:10.500Z,11.50
2022-10-13T00:50:59.308Z,11.50
2022-10-13T00:53:49.104Z,11.50
2022-10-13T00:56:37.601Z,11.40
2022-10-13T00:59:29.042Z,11.40
2022-10-13T01:02:16.142Z,11.40
2022-10-13T01:05:05.014Z,11.40
2022-10-13T01:07:52.635Z,11.40
2022-10-13T01:10:50.312Z,11.30
2022-10-13T01:13:43.633Z,11.30
2022-10-13T01:16:40.845Z,11.30
2022-10-13T01:19:45.887Z,11.30
2022-10-13T01:22:49.892Z,11.30
2022-10-13T01:25:55.197Z,11.20
2022-10-13T01:29:03.300Z,11.10
2022-10-13T01:32:00.240Z,11.10
2022-10-13T01:34:53.964Z,11.10
2022-10-13T01:37:47.027Z,11.20
2022-10-13T01:40:41.017Z,11.20
2022-10-13T01:43:32.056Z,11.20
2022-10-13T01:46:23.953Z,11.20
2022-10-13T01:49:15.861Z,11.20
2022-10-13T01:52:05.476Z,11.20
2022-10-13T01:54:52.943Z,11.20
2022-10-13T01:57:42.533Z,11.20
2022-10-13T02:00:32.639Z,11.20
2022-10-13T02:03:24.584Z,11.20
2022-10-13T02:06:19.439Z,11.20
2022-10-13T02:09:12.159Z,11.30
2022-10-13T02:12:03.141Z,11.20
2022-10-13T02:14:51.906Z,11.20
2022-10-13T02:17:38.407Z,11.20
2022-10-13T02:20:25.101Z,11.20
2022-10-13T02:23:16.324Z,11.20
2022-10-13T02:26:03.514Z,11.20
2022-10-13T02:28:50.376Z,11.10
2022-10-13T02:31:36.842Z,11.20
2022-10-13T02:34:23.419Z,11.20
2022-10-13T02:37:10.288Z,11.10
2022-10-13T02:39:58.097Z,11.10
2022-10-13T02:42:45.235Z,11.10
2022-10-13T02:45:31.748Z,11.10
2022-10-13T02:48:18.126Z,11.10
2022-10-13T02:51:04.892Z,11.10
2022-10-13T02:53:51.473Z,11.10
2022-10-13T02:56:39.295Z,11.10
2022-10-13T02:59:25.983Z,11.10
2022-10-13T03:02:12.610Z,11.10
2022-10-13T03:04:59.085Z,11.10
2022-10-13T03:07:45.849Z,11.10
2022-10-13T03:10:33.161Z,11.10
2022-10-13T03:13:21.383Z,11.20
2022-10-13T03:16:08.000Z,11.20
2022-10-13T03:18:54.483Z,11.20
2022-10-13T03:21:41.290Z,11.20
2022-10-13T03:24:28.035Z,11.20
2022-10-13T03:27:14.534Z,11.20
2022-10-13T03:30:02.595Z,11.20
2022-10-13T03:32:48.920Z,11.20
2022-10-13T03:35:35.296Z,11.20
2022-10-13T03:38:21.899Z,11.20
2022-10-13T03:41:09.629Z,10.00
2022-10-13T03:43:56.117Z,11.20
2022-10-13T03:46:44.646Z,11.20
2022-10-13T03:49:30.987Z,11.20
2022-10-13T03:52:17.868Z,11.20
2022-10-13T03:55:05.626Z,11.30
2022-10-13T03:57:52.484Z,11.30
2022-10-13T04:00:38.876Z,11.30
2022-10-13T04:03:26.828Z,11.30
2022-10-13T04:06:13.693Z,11.30
2022-10-13T04:09:00.131Z,11.40
2022-10-13T04:11:46.592Z,11.40
2022-10-13T04:14:33.169Z,11.40
2022-10-13T04:17:19.528Z,11.40
2022-10-13T04:20:08.800Z,11.40
2022-10-13T04:22:55.719Z,11.40
2022-10-13T04:25:42.179Z,11.40
2022-10-13T04:28:28.612Z,11.40
2022-10-13T04:31:15.637Z,11.40
2022-10-13T04:34:02.601Z,11.40
2022-10-13T04:36:52.508Z,11.40
2022-10-13T04:39:39.180Z,11.40
2022-10-13T04:42:25.654Z,11.40
2022-10-13T04:45:12.357Z,11.40
2022-10-13T04:47:58.945Z,11.40
2022-10-13T04:50:45.472Z,11.40
2022-10-13T04:53:33.891Z,11.50
2022-10-13T04:56:20.310Z,11.50
2022-10-13T04:59:06.844Z,11.50
2022-10-13T05:01:53.310Z,11.50
2022-10-13T05:04:39.934Z,11.50
2022-10-13T05:07:26.583Z,11.50
2022-10-13T05:10:14.915Z,11.50
2022-10-13T05:13:01.725Z,11.50
2022-10-13T05:15:48.231Z,11.50
2022-10-13T05:18:34.909Z,11.60
2022-10-13T05:21:23.418Z,11.50
2022-10-13T05:24:13.508Z,11.60
2022-10-13T05:27:01.652Z,11.60
2022-10-13T05:29:48.448Z,11.60
2022-10-13T05:32:36.589Z,11.70
2022-10-13T05:35:23.182Z,11.70
2022-10-13T05:38:10.199Z,11.70
2022-10-13T05:40:56.612Z,11.70
2022-10-13T05:43:44.536Z,11.70
2022-10-13T05:46:31.596Z,11.70
2022-10-13T05:49:18.315Z,11.70
2022-10-13T05:52:08.204Z,11.80
2022-10-13T05:54:57.631Z,11.80
2022-10-13T05:57:46.899Z,11.80
2022-10-13T06:00:35.297Z,11.80
2022-10-13T06:03:24.412Z,11.90
2022-10-13T06:06:11.257Z,11.90
2022-10-13T06:08:57.796Z,11.90
2022-10-13T06:11:44.612Z,11.90
2022-10-13T06:14:30.945Z,12.00
2022-10-13T06:17:18.768Z,12.00
2022-10-13T06:20:06.620Z,11.90
2022-10-13T06:22:53.165Z,12.00
2022-10-13T06:25:39.532Z,12.00
2022-10-13T06:28:26.299Z,12.00
2022-10-13T06:31:13.356Z,12.10
2022-10-13T06:34:01.789Z,12.10
2022-10-13T06:36:48.307Z,12.10
2022-10-13T06:39:35.022Z,12.10
2022-10-13T06:42:21.958Z,12.20
2022-10-13T06:45:09.802Z,12.20
2022-10-13T06:47:56.346Z,12.20
2022-10-13T06:50:44.162Z,12.20
2022-10-13T06:53:31.239Z,12.20
2022-10-13T06:56:17.813Z,12.30
2022-10-13T06:59:04.369Z,12.30
2022-10-13T07:01:51.815Z,12.40
2022-10-13T07:04:38.380Z,12.40
2022-10-13T07:07:26.491Z,12.50
2022-10-13T07:10:13.113Z,12.50
2022-10-13T07:12:59.540Z,12.60
2022-10-13T07:15:46.307Z,12.60
2022-10-13T07:18:33.375Z,12.60
2022-10-13T07:21:20.096Z,12.60
2022-10-13T07:24:10.066Z,12.70
2022-10-13T07:26:56.701Z,12.70
2022-10-13T07:29:43.219Z,12.70
2022-10-13T07:32:29.837Z,12.80
2022-10-13T07:35:16.361Z,12.80
2022-10-13T07:38:02.775Z,12.80
2022-10-13T07:40:50.875Z,12.80
2022-10-13T07:43:37.763Z,12.90
2022-10-13T07:46:25.436Z,12.90
2022-10-13T07:49:15.254Z,12.90
2022-10-13T07:52:03.071Z,13.00
2022-10-13T07:54:49.678Z,13.00
2022-10-13T07:57:37.371Z,13.00
2022-10-13T08:00:24.174Z,13.00
2022-10-13T08:03:10.740Z,13.00
2022-10-13T08:05:59.331Z,13.10
2022-10-13T08:08:45.748Z,13.20
2022-10-13T08:11:32.864Z,13.20
2022-10-13T08:14:21.324Z,13.30
2022-10-13T08:17:07.681Z,13.30
2022-10-13T08:19:54.215Z,13.40
2022-10-13T08:22:40.727Z,13.50
2022-10-13T08:25:27.217Z,13.60
2022-10-13T08:28:19.864Z,13.70
2022-10-13T08:31:08.447Z,13.80
2022-10-13T08:33:55.121Z,13.90
2022-10-13T08:36:42.748Z,13.90
2022-10-13T08:39:29.455Z,13.90
2022-10-13T08:42:19.335Z,14.10
2022-10-13T08:45:40.419Z,14.10
2022-10-13T08:48:19.869Z,14.20
2022-10-13T08:51:08.594Z,14.40
2022-10-13T08:53:55.084Z,14.50
2022-10-13T08:56:41.549Z,14.50
2022-10-13T08:59:27.983Z,14.60
2022-10-13T09:02:22.917Z,14.60
2022-10-13T09:05:17.507Z,14.60
2022-10-13T09:08:06.427Z,14.60
2022-10-13T09:10:53.925Z,14.70
2022-10-13T09:13:41.201Z,14.70
2022-10-13T09:16:30.547Z,14.90
2022-10-13T09:19:27.564Z,14.90
2022-10-13T09:22:25.186Z,14.90
2022-10-13T09:25:20.548Z,15.10
2022-10-13T09:28:15.057Z,15.30
2022-10-13T09:31:04.990Z,15.50
2022-10-13T09:34:00.680Z,15.60
2022-10-13T09:36:58.179Z,15.80
2022-10-13T09:39:45.989Z,15.60
2022-10-13T09:42:33.260Z,15.60
2022-10-13T09:45:23.399Z,15.70
2022-10-13T09:48:23.416Z,15.70
2022-10-13T09:51:42.774Z,15.60
2022-10-13T09:54:38.524Z,15.50
2022-10-13T09:57:36.016Z,15.60
2022-10-13T10:00:24.485Z,15.80
2022-10-13T10:03:17.683Z,16.00
2022-10-13T10:06:07.841Z,16.10
2022-10-13T10:09:03.368Z,16.20
2022-10-13T10:11:52.988Z,16.30
2022-10-13T10:14:41.148Z,16.30
2022-10-13T10:17:33.312Z,16.30
2022-10-13T10:20:38.363Z,16.60
2022-10-13T10:23:38.100Z,16.70
2022-10-13T10:26:32.804Z,16.80
2022-10-13T10:29:27.260Z,16.60
2022-10-13T10:32:28.439Z,16.60
2022-10-13T10:35:21.038Z,16.40
2022-10-13T10:38:22.031Z,16.40
2022-10-13T10:41:17.619Z,16.30
2022-10-13T10:44:08.704Z,16.40
2022-10-13T10:47:00.491Z,16.40
2022-10-13T10:49:49.287Z,16.40
2022-10-13T10:52:55.232Z,16.40
2022-10-13T10:55:49.859Z,16.50
2022-10-13T10:58:42.946Z,16.60
2022-10-13T11:01:37.502Z,16.70
2022-10-13T11:04:40.712Z,16.70
2022-10-13T11:07:58.004Z,16.80
2022-10-13T11:10:44.707Z,16.80
2022-10-13T11:13:31.363Z,16.80
2022-10-13T11:16:29.876Z,17.10
2022-10-13T11:19:33.015Z,17.20
2022-10-13T11:22:22.145Z,17.50
2022-10-13T11:25:39.953Z,17.80
2022-10-13T11:28:48.842Z,18.00
2022-10-13T11:31:55.067Z,17.70
2022-10-13T11:34:59.040Z,17.50
2022-10-13T11:38:05.982Z,17.40
2022-10-13T11:41:13.371Z,17.30
2022-10-13T11:44:05.344Z,17.20
2022-10-13T11:47:03.758Z,17.20
2022-10-13T11:50:05.019Z,17.20
2022-10-13T11:53:07.980Z,17.10
2022-10-13T11:55:56.643Z,17.00
2022-10-13T11:58:44.630Z,17.00
2022-10-13T12:01:31.415Z,17.00
2022-10-13T12:04:22.709Z,17.00
2022-10-13T12:07:11.836Z,17.10
2022-10-13T12:09:58.897Z,17.10
2022-10-13T12:12:49.498Z,17.10
2022-10-13T12:15:39.967Z,17.10
2022-10-13T12:18:29.890Z,17.10
2022-10-13T12:21:19.988Z,17.00
2022-10-13T12:24:11.201Z,17.00
2022-10-13T12:26:58.740Z,16.90
2022-10-13T12:29:45.173Z,16.90
2022-10-13T12:32:35.924Z,16.90
2022-10-13T12:35:26.619Z,16.80
2022-10-13T12:38:19.563Z,16.90
2022-10-13T12:41:06.834Z,16.80
2022-10-13T12:43:54.362Z,16.80
2022-10-13T12:46:42.455Z,16.80
2022-10-13T12:49:32.130Z,16.80
2022-10-13T12:52:24.756Z,16.90
2022-10-13T12:55:18.157Z,16.90
2022-10-13T12:58:04.920Z,17.00
2022-10-13T13:01:02.206Z,17.00
2022-10-13T13:03:57.300Z,17.00
2022-10-13T13:06:56.439Z,17.10
2022-10-13T13:09:42.878Z,17.10
2022-10-13T13:12:30.062Z,17.20
2022-10-13T13:15:34.994Z,17.20
2022-10-13T13:18:36.296Z,17.20
2022-10-13T13:21:23.142Z,17.20
2022-10-13T13:24:21.846Z,17.30
2022-10-13T13:27:26.296Z,17.30
2022-10-13T13:30:15.233Z,17.40
2022-10-13T13:33:01.746Z,17.50
2022-10-13T13:35:49.061Z,17.50
2022-10-13T13:38:35.777Z,17.60
2022-10-13T13:41:24.117Z,17.70
2022-10-13T13:44:10.612Z,17.70
2022-10-13T13:46:57.067Z,17.70
2022-10-13T13:49:43.568Z,17.80
2022-10-13T13:52:30.339Z,17.90
2022-10-13T13:55:17.491Z,17.80
2022-10-13T13:58:05.558Z,17.80
2022-10-13T14:00:52.292Z,17.70
2022-10-13T14:03:39.003Z,17.80
2022-10-13T14:06:25.946Z,17.80
2022-10-13T14:09:12.240Z,17.80
2022-10-13T14:11:59.196Z,18.00
2022-10-13T14:14:47.363Z,18.00
2022-10-13T14:17:33.975Z,18.10
2022-10-13T14:20:20.763Z,18.00
2022-10-13T14:23:07.445Z,18.10
2022-10-13T14:25:54.115Z,18.10
2022-10-13T14:28:41.945Z,18.00
2022-10-13T14:31:30.635Z,18.10
2022-10-13T14:34:17.250Z,18.20
2022-10-13T14:37:03.677Z,18.20
2022-10-13T14:39:50.200Z,18.20
2022-10-13T14:42:36.703Z,18.10
2022-10-13T14:45:23.049Z,18.10
2022-10-13T14:48:11.833Z,18.10
2022-10-13T14:50:58.710Z,18.00
2022-10-13T14:53:46.706Z,18.00
2022-10-13T14:56:33.526Z,17.90
2022-10-13T14:59:20.667Z,17.80
2022-10-13T15:02:07.452Z,17.80
2022-10-13T15:04:55.324Z,17.70
2022-10-13T15:07:42.165Z,17.70
2022-10-13T15:10:28.962Z,17.70
2022-10-13T15:13:15.335Z,17.60
2022-10-13T15:16:02.508Z,17.50
2022-10-13T15:18:49.376Z,17.60
2022-10-13T15:21:37.444Z,17.50
2022-10-13T15:24:24.173Z,17.50
2022-10-13T15:27:10.668Z,17.50
2022-10-13T15:29:57.211Z,17.50
2022-10-13T15:32:43.704Z,17.50
2022-10-13T15:35:31.117Z,17.40
2022-10-13T15:38:20.595Z,17.40
2022-10-13T15:41:08.100Z,17.30
2022-10-13T15:43:54.584Z,17.30
2022-10-13T15:46:53.955Z,17.20
2022-10-13T15:49:47.846Z,17.20
2022-10-13T15:52:39.348Z,17.20
2022-10-13T15:55:28.682Z,17.10
2022-10-13T15:58:15.213Z,17.00
2022-10-13T16:01:01.927Z,17.00
2022-10-13T16:03:48.709Z,16.90
2022-10-13T16:06:37.240Z,16.90
2022-10-13T16:09:23.916Z,16.80
2022-10-13T16:12:11.868Z,16.80
2022-10-13T16:14:58.344Z,16.80
2022-10-13T16:17:46.222Z,16.70
2022-10-13T16:20:35.390Z,16.60
2022-10-13T16:23:21.928Z,16.70
2022-10-13T16:26:09.040Z,16.60
2022-10-13T16:28:58.106Z,16.60
2022-10-13T16:31:45.125Z,16.60
2022-10-13T16:34:31.857Z,16.60
2022-10-13T16:37:18.526Z,16.60
2022-10-13T16:40:05.892Z,16.50
2022-10-13T16:42:52.292Z,16.40
2022-10-13T16:45:58.549Z,16.40
2022-10-13T16:48:46.713Z,16.40
2022-10-13T16:51:33.982Z,16.30
2022-10-13T16:54:20.416Z,16.20
2022-10-13T16:57:06.871Z,16.00
2022-10-13T16:59:53.505Z,16.00
2022-10-13T17:02:41.731Z,16.00
2022-10-13T17:05:28.596Z,15.90
2022-10-13T17:08:15.448Z,15.70
2022-10-13T17:11:02.295Z,15.70
2022-10-13T17:13:49.772Z,15.60
2022-10-13T17:16:36.762Z,15.70
2022-10-13T17:19:24.654Z,15.40
2022-10-13T17:22:11.193Z,15.50
2022-10-13T17:24:57.742Z,15.40
2022-10-13T17:27:44.499Z,15.30
2022-10-13T17:30:30.922Z,15.50
2022-10-13T17:33:17.353Z,15.40
2022-10-13T17:36:08.156Z,15.40
2022-10-13T17:38:57.256Z,15.40
2022-10-13T17:41:43.676Z,15.40
2022-10-13T17:44:30.189Z,15.40
2022-10-13T17:47:16.716Z,15.50
2022-10-13T17:50:03.132Z,15.40
2022-10-13T17:52:51.021Z,15.30
2022-10-13T17:55:37.865Z,15.40
2022-10-13T17:58:24.289Z,15.40
2022-10-13T18:01:13.996Z,15.30
2022-10-13T18:04:02.108Z,15.30
2022-10-13T18:06:49.316Z,15.30
2022-10-13T18:09:37.165Z,15.20
2022-10-13T18:12:23.961Z,15.30
2022-10-13T18:15:10.778Z,15.30
2022-10-13T18:17:57.610Z,15.10
2022-10-13T18:20:44.059Z,15.20
2022-10-13T18:23:32.444Z,15.20
2022-10-13T18:26:21.425Z,15.20
2022-10-13T18:29:09.737Z,15.20
2022-10-13T18:31:57.373Z,15.20
2022-10-13T18:34:44.193Z,15.10
2022-10-13T18:37:30.749Z,15.20
2022-10-13T18:40:17.299Z,15.20
2022-10-13T18:43:05.400Z,15.20
2022-10-13T18:45:52.095Z,15.10
2022-10-13T18:48:38.649Z,15.10
2022-10-13T18:51:25.744Z,15.20
2022-10-13T18:54:12.800Z,15.10
2022-10-13T18:56:59.609Z,15.10
2022-10-13T18:59:47.417Z,15.10
2022-10-13T19:02:34.437Z,15.10
2022-10-13T19:05:21.248Z,15.10
2022-10-13T19:08:09.495Z,15.10
2022-10-13T19:10:56.372Z,15.10
2022-10-13T19:13:44.100Z,15.10
2022-10-13T19:16:33.610Z,15.10
2022-10-13T19:19:20.487Z,15.00
2022-10-13T19:22:09.941Z,15.00
2022-10-13T19:24:56.469Z,15.00
2022-10-13T19:27:43.033Z,15.00
2022-10-13T19:30:29.732Z,15.10
2022-10-13T19:33:18.968Z,15.00
2022-10-13T19:36:06.255Z,15.00
2022-10-13T19:38:52.784Z,15.00
2022-10-13T19:41:39.472Z,15.00
2022-10-13T19:44:26.231Z,15.10
2022-10-13T19:47:13.061Z,15.00
2022-10-13T19:50:00.853Z,14.90
2022-10-13T19:52:47.794Z,14.90
2022-10-13T19:55:39.179Z,14.90
2022-10-13T19:58:25.904Z,14.90
2022-10-13T20:01:12.336Z,14.90
2022-10-13T20:03:59.465Z,14.90
2022-10-13T20:06:48.872Z,14.90
2022-10-13T20:09:35.434Z,14.90
2022-10-13T20:12:22.212Z,14.90
2022-10-13T20:15:09.038Z,14.90
2022-10-13T20:17:55.481Z,15.00
2022-10-13T20:20:42.981Z,14.90
2022-10-13T20:23:31.304Z,14.90
2022-10-13T20:26:18.352Z,14.90
2022-10-13T20:29:04.898Z,14.90
2022-10-13T20:31:51.868Z,14.90
2022-10-13T20:34:38.528Z,14.90
2022-10-13T20:37:24.808Z,14.80
2022-10-13T20:40:13.301Z,14.80
2022-10-13T20:42:59.968Z,14.80
2022-10-13T20:45:46.282Z,14.80
2022-10-13T20:48:51.217Z,14.80
2022-10-13T20:51:40.096Z,14.80
2022-10-13T20:54:26.948Z,14.80
2022-10-13T20:57:14.837Z,14.80
2022-10-13T21:00:01.736Z,14.70
2022-10-13T21:02:48.699Z,14.80
2022-10-13T21:05:35.074Z,14.70
2022-10-13T21:08:22.937Z,14.80
2022-10-13T21:11:11.955Z,14.70
2022-10-13T21:13:59.960Z,14.70
2022-10-13T21:16:46.570Z,14.70
2022-10-13T21:19:33.025Z,14.70
2022-10-13T21:22:19.528Z,14.80
2022-10-13T21:25:06.675Z,14.70
2022-10-13T21:27:53.547Z,14.80
2022-10-13T21:30:41.688Z,14.80
2022-10-13T21:33:28.512Z,14.70
2022-10-13T21:36:17.053Z,14.80
2022-10-13T21:39:06.739Z,14.80
2022-10-13T21:41:53.408Z,14.80
2022-10-13T21:44:39.954Z,14.80
2022-10-13T21:47:30.830Z,14.80
2022-10-13T21:50:17.281Z,14.80
2022-10-13T21:53:04.023Z,14.80
2022-10-13T21:55:50.468Z,14.70
2022-10-13T21:58:37.071Z,14.80
2022-10-13T22:01:25.197Z,14.80
2022-10-13T22:04:14.447Z,14.70
2022-10-13T22:07:00.726Z,14.80
2022-10-13T22:09:47.100Z,14.80
2022-10-13T22:12:33.523Z,14.70
2022-10-13T22:15:20.028Z,14.70
2022-10-13T22:18:06.677Z,14.70
2022-10-13T22:20:54.788Z,14.70
2022-10-13T22:23:42.027Z,14.80
2022-10-13T22:26:30.207Z,14.80
2022-10-13T22:29:19.204Z,14.80
2022-10-13T22:32:05.961Z,14.80
2022-10-13T22:34:52.260Z,14.80
2022-10-13T22:37:40.114Z,14.80
2022-10-13T22:40:26.881Z,14.80
2022-10-13T22:43:13.362Z,14.70
2022-10-13T22:46:01.916Z,14.70
2022-10-13T22:48:48.920Z,14.70
2022-10-13T22:51:37.130Z,14.80
2022-10-13T22:54:25.124Z,14.70
2022-10-13T22:57:11.947Z,14.80
2022-10-13T22:59:58.668Z,14.70
2022-10-13T23:02:45.347Z,14.80
2022-10-13T23:05:32.235Z,14.70
2022-10-13T23:08:18.784Z,14.70
2022-10-13T23:11:06.847Z,14.70
2022-10-13T23:13:53.679Z,14.70
2022-10-13T23:16:40.181Z,14.70
2022-10-13T23:19:26.988Z,14.70
2022-10-13T23:22:13.683Z,14.70
2022-10-13T23:25:00.183Z,14.70
2022-10-13T23:27:48.083Z,14.70
2022-10-13T23:30:34.752Z,14.60
2022-10-13T23:33:21.238Z,14.60
2022-10-13T23:36:09.519Z,14.60
2022-10-13T23:38:56.902Z,14.60
2022-10-13T23:41:43.308Z,14.60
2022-10-13T23:44:31.038Z,14.60
2022-10-13T23:47:17.649Z,14.60
2022-10-13T23:50:04.427Z,14.60
2022-10-13T23:52:51.248Z,14.70
2022-10-13T23:55:38.903Z,14.70
2022-10-13T23:58:25.630Z,14.60
